Time;durP1;ratioP1;P1;durP2;ratioP2;P2;SDS_P1;SDS_P2;PMS_P1;PMS_P2;Temp;Humidity;BMP_temperature;BMP_pressure;BME280_temperature;BME280_humidity;BME280_pressure;Samples;Min_cycle;Max_cycle;Signal;HPM_P1;HPM_P2
2022/10/10 00:00:51;;;;;;;10.15;4.93;;;;;;;11.08;100.00;98336.28;4995051;28;20516;-88
2022/10/10 00:03:18;;;;;;;10.80;5.60;;;;;;;11.20;100.00;98333.75;4962644;28;20034;-89
2022/10/10 00:05:44;;;;;;;10.27;5.53;;;;;;;11.18;100.00;98328.69;4962853;28;20061;-88
2022/10/10 00:08:10;;;;;;;14.90;5.80;;;;;;;11.13;100.00;98318.84;4979655;28;20396;-88
2022/10/10 00:10:36;;;;;;;11.80;5.75;;;;;;;11.16;100.00;98324.69;4996222;28;20041;-88
2022/10/10 00:13:04;;;;;;;11.57;5.30;;;;;;;11.17;100.00;98329.72;4961767;28;20030;-88
2022/10/10 00:15:29;;;;;;;15.55;6.38;;;;;;;11.11;100.00;98325.34;4961916;28;20030;-86
2022/10/10 00:17:55;;;;;;;11.40;6.45;;;;;;;11.15;100.00;98342.25;4978081;28;20432;-88
2022/10/10 00:20:21;;;;;;;12.77;5.63;;;;;;;10.97;100.00;98341.19;4996078;28;20109;-89
2022/10/10 00:22:47;;;;;;;17.08;6.65;;;;;;;11.12;100.00;98350.56;4979883;28;20030;-89
2022/10/10 00:25:13;;;;;;;11.23;5.38;;;;;;;11.13;100.00;98316.22;4997068;28;20126;-88
2022/10/10 00:27:40;;;;;;;14.32;6.28;;;;;;;11.11;100.00;98325.34;4962344;28;20065;-89
2022/10/10 00:30:08;;;;;;;12.50;5.85;;;;;;;11.18;100.00;98325.28;4978631;28;20505;-89
2022/10/10 00:32:35;;;;;;;12.73;5.65;;;;;;;11.24;100.00;98330.47;4962285;28;20485;-87
2022/10/10 00:35:01;;;;;;;13.73;6.20;;;;;;;11.14;100.00;98327.53;4976790;28;20503;-90
2022/10/10 00:37:26;;;;;;;10.20;5.88;;;;;;;11.00;100.00;98356.53;4978329;28;20030;-89
2022/10/10 00:39:52;;;;;;;13.63;5.50;;;;;;;11.08;100.00;98346.78;4978377;28;20092;-88
2022/10/10 00:42:18;;;;;;;8.93;5.05;;;;;;;11.13;100.00;98354.81;4977981;28;20495;-88
2022/10/10 00:45:04;;;;;;;11.65;5.32;;;;;;;11.19;100.00;98364.44;4962422;28;20034;-89
2022/10/10 00:47:30;;;;;;;13.35;5.35;;;;;;;11.09;100.00;98358.91;4978736;28;20477;-88
2022/10/10 00:49:56;;;;;;;7.57;5.15;;;;;;;11.06;100.00;98346.97;4995522;28;20081;-88
2022/10/10 00:52:22;;;;;;;8.38;5.25;;;;;;;11.09;100.00;98343.13;4978602;28;20413;-89
2022/10/10 00:54:47;;;;;;;9.68;5.70;;;;;;;11.28;100.00;98376.31;4978076;28;20045;-89
2022/10/10 00:57:13;;;;;;;13.77;5.30;;;;;;;11.05;100.00;98392.66;4977466;28;20035;-88
2022/10/10 00:59:44;;;;;;;9.25;5.30;;;;;;;10.92;100.00;98362.03;4977276;28;20023;-88
2022/10/10 01:02:10;;;;;;;8.73;5.38;;;;;;;11.21;100.00;98388.72;4977648;28;20026;-88
2022/10/10 01:04:39;;;;;;;8.77;5.43;;;;;;;11.29;100.00;98377.91;4976601;28;20036;-88
2022/10/10 01:07:09;;;;;;;8.52;4.78;;;;;;;11.39;100.00;98395.00;4961855;28;20119;-87
2022/10/10 01:09:38;;;;;;;9.15;5.55;;;;;;;11.45;100.00;98401.22;4976215;28;20088;-90
2022/10/10 01:12:10;;;;;;;9.43;5.60;;;;;;;11.43;100.00;98401.47;4977060;28;20030;-87
2022/10/10 01:15:05;;;;;;;8.35;6.07;;;;;;;11.61;100.00;98415.66;4976555;28;20034;-88
2022/10/10 01:17:42;;;;;;;7.87;5.37;;;;;;;11.56;100.00;98422.34;4963653;28;20060;-87
2022/10/10 01:20:36;;;;;;;10.52;5.85;;;;;;;11.23;100.00;98433.94;4961446;28;20050;-87
2022/10/10 01:23:39;;;;;;;7.70;6.40;;;;;;;11.45;100.00;98427.50;4960073;28;20031;-87
2022/10/10 01:26:35;;;;;;;6.13;5.00;;;;;;;11.40;100.00;98428.16;4959958;28;20561;-89
2022/10/10 01:29:05;;;;;;;9.95;5.63;;;;;;;11.48;100.00;98443.66;4994704;28;20031;-89
2022/10/10 01:31:37;;;;;;;6.53;5.07;;;;;;;11.62;100.00;98440.94;4961366;28;20030;-90
2022/10/10 01:34:16;;;;;;;11.80;8.23;;;;;;;11.57;100.00;98444.97;4959882;28;20129;-87
2022/10/10 01:36:45;;;;;;;11.70;7.07;;;;;;;11.38;100.00;98462.53;4961648;28;20069;-90
2022/10/10 01:39:36;;;;;;;12.60;6.82;;;;;;;11.29;100.00;98442.78;4960671;28;20469;-90
2022/10/10 01:42:13;;;;;;;6.32;3.45;;;;;;;11.08;100.00;98451.84;4976058;28;20034;-88
2022/10/10 01:44:43;;;;;;;7.65;3.72;;;;;;;11.20;100.00;98459.84;4958088;28;20048;-89
2022/10/10 01:47:11;;;;;;;3.47;2.22;;;;;;;11.02;100.00;98473.69;4995714;28;20476;-89
2022/10/10 01:49:39;;;;;;;4.38;1.85;;;;;;;10.70;100.00;98485.75;4978009;28;20038;-89
2022/10/10 01:52:40;;;;;;;6.32;1.63;;;;;;;10.45;100.00;98479.63;4960319;28;20496;-88
2022/10/10 01:55:15;;;;;;;9.18;2.03;;;;;;;9.77;100.00;98490.19;4958666;28;20031;-88
2022/10/10 01:57:40;;;;;;;12.07;1.83;;;;;;;9.61;100.00;98508.94;4994692;28;20424;-90
2022/10/10 02:00:15;;;;;;;12.55;2.22;;;;;;;8.58;100.00;98527.22;4981918;28;20037;-91
2022/10/10 02:02:56;;;;;;;11.95;1.88;;;;;;;8.63;100.00;98522.19;4985428;28;20030;-91
2022/10/10 02:05:35;;;;;;;8.25;2.13;;;;;;;8.32;100.00;98501.69;5000661;28;20034;-91
2022/10/10 02:08:30;;;;;;;8.25;1.65;;;;;;;8.51;100.00;98542.06;4951529;28;20030;-90
2022/10/10 02:11:00;;;;;;;8.90;1.73;;;;;;;8.27;100.00;98537.06;4998022;28;20457;-89
2022/10/10 02:13:36;;;;;;;9.70;1.77;;;;;;;8.12;100.00;98531.97;4979957;28;20049;-89
2022/10/10 02:16:07;;;;;;;14.85;2.60;;;;;;;8.07;100.00;98520.47;4962177;28;20097;-90
2022/10/10 02:18:35;;;;;;;9.27;2.15;;;;;;;8.33;100.00;98519.81;4962673;28;20054;-89
2022/10/10 02:21:06;;;;;;;14.70;2.63;;;;;;;8.34;100.00;98516.19;4978745;28;20042;-90
2022/10/10 02:23:33;;;;;;;16.67;2.38;;;;;;;8.24;100.00;98503.47;4962887;28;20062;-88
2022/10/10 02:25:59;;;;;;;12.15;2.30;;;;;;;8.01;100.00;98482.81;4962261;28;20508;-91
2022/10/10 02:28:43;;;;;;;14.27;2.50;;;;;;;8.49;100.00;98536.19;4964242;28;20042;-90
2022/10/10 02:31:18;;;;;;;7.85;2.58;;;;;;;8.62;100.00;98515.34;4964012;28;20050;-90
2022/10/10 02:33:55;;;;;;;13.40;2.63;;;;;;;8.70;100.00;98533.53;4963815;28;20034;-90
2022/10/10 02:36:22;;;;;;;13.35;2.65;;;;;;;8.18;100.00;98474.66;4978692;28;20030;-89
2022/10/10 02:38:50;;;;;;;18.67;2.28;;;;;;;8.48;100.00;98529.34;4979144;28;20034;-92
2022/10/10 02:41:18;;;;;;;15.75;2.33;;;;;;;8.51;100.00;98500.22;4964931;28;20035;-90
2022/10/10 02:43:45;;;;;;;17.08;2.20;;;;;;;8.63;100.00;98535.28;4980886;28;20248;-90
2022/10/10 02:46:12;;;;;;;17.75;2.28;;;;;;;8.37;100.00;98481.81;4963047;28;20035;-90
2022/10/10 02:48:39;;;;;;;12.35;2.42;;;;;;;8.96;100.00;98552.94;4961713;28;20483;-89
2022/10/10 02:51:06;;;;;;;12.85;3.88;;;;;;;8.69;100.00;98518.00;4961796;28;20448;-91
2022/10/10 02:53:33;;;;;;;12.73;2.10;;;;;;;8.70;100.00;98509.97;4962331;28;20041;-89
2022/10/10 02:55:58;;;;;;;8.65;2.47;;;;;;;8.82;100.00;98556.50;4961969;28;20421;-91
2022/10/10 02:58:24;;;;;;;17.88;3.45;;;;;;;8.83;100.00;98547.63;4962835;28;20101;-91
2022/10/10 03:00:49;;;;;;;15.32;2.42;;;;;;;8.84;100.00;98538.78;4978385;28;20038;-91
2022/10/10 03:03:15;;;;;;;16.13;3.15;;;;;;;8.76;100.00;98528.50;4978655;28;20034;-90
2022/10/10 03:05:41;;;;;;;17.05;2.75;;;;;;;8.95;100.00;98542.69;4963942;28;20118;-90
2022/10/10 03:08:07;;;;;;;11.02;2.70;;;;;;;8.70;100.00;98509.97;4964652;28;20038;-89
2022/10/10 03:10:35;;;;;;;20.15;2.78;;;;;;;8.80;100.00;98521.88;4964541;28;20038;-91
2022/10/10 03:13:03;;;;;;;13.32;2.47;;;;;;;8.72;100.00;98509.75;4961432;28;20459;-90
2022/10/10 03:15:31;;;;;;;10.18;2.70;;;;;;;8.78;100.00;98509.00;4961454;28;20397;-89
2022/10/10 03:17:57;;;;;;;18.35;2.63;;;;;;;8.94;100.00;98522.72;4960760;28;20026;-90
2022/10/10 03:20:23;;;;;;;12.43;2.15;;;;;;;8.94;100.00;98554.13;4977159;28;20026;-87
2022/10/10 03:22:51;;;;;;;17.73;2.60;;;;;;;8.80;100.00;98527.91;4960530;28;20116;-91
2022/10/10 03:25:17;;;;;;;22.85;2.70;;;;;;;9.10;100.00;98597.50;4960907;28;20026;-90
2022/10/10 03:27:43;;;;;;;10.55;2.40;;;;;;;8.69;100.00;98541.53;4961622;28;20105;-88
2022/10/10 03:30:10;;;;;;;11.30;2.38;;;;;;;8.49;100.00;98555.31;4980403;28;20034;-88
2022/10/10 03:32:35;;;;;;;12.55;2.60;;;;;;;8.48;100.00;98598.16;4963261;28;20093;-90
2022/10/10 03:35:01;;;;;;;12.20;2.20;;;;;;;8.61;100.00;98589.59;4980030;28;20026;-89
2022/10/10 03:37:30;;;;;;;11.38;2.38;;;;;;;8.52;100.00;98596.78;4964902;28;20038;-90
2022/10/10 03:39:55;;;;;;;11.50;2.72;;;;;;;8.46;100.00;98609.81;4959609;28;20366;-89
2022/10/10 03:42:21;;;;;;;14.20;2.58;;;;;;;8.27;100.00;98580.72;4980751;28;20098;-88
2022/10/10 03:44:47;;;;;;;19.42;2.90;;;;;;;8.34;100.00;98610.34;4979728;28;20030;-90
2022/10/10 03:47:12;;;;;;;11.98;2.10;;;;;;;8.19;100.00;98596.53;4963548;28;20049;-88
2022/10/10 03:49:38;;;;;;;11.32;2.80;;;;;;;8.21;100.00;98603.22;4963902;28;20473;-90
2022/10/10 03:52:06;;;;;;;15.20;3.10;;;;;;;8.24;100.00;98622.94;4996706;28;20497;-90
2022/10/10 03:54:34;;;;;;;20.80;3.08;;;;;;;8.13;100.00;98626.88;4980290;28;20117;-91
2022/10/10 03:57:00;;;;;;;16.88;4.43;;;;;;;8.12;100.00;98638.31;4979884;28;20116;-87
2022/10/10 03:59:27;;;;;;;21.02;3.20;;;;;;;7.68;100.00;98611.41;4963776;28;20022;-90
2022/10/10 04:01:55;;;;;;;18.45;3.53;;;;;;;7.96;100.00;98637.59;4964770;28;20045;-90
2022/10/10 04:04:29;;;;;;;10.32;2.80;;;;;;;7.98;100.00;98634.78;4981173;28;20050;-90
2022/10/10 04:07:08;;;;;;;19.50;3.00;;;;;;;7.95;100.00;98641.19;4963238;28;20042;-90
2022/10/10 04:09:33;;;;;;;15.95;3.47;;;;;;;7.93;100.00;98652.84;4980756;28;20049;-89
2022/10/10 04:11:59;;;;;;;13.65;4.13;;;;;;;7.93;100.00;98658.06;4964551;28;20031;-91
2022/10/10 04:14:25;;;;;;;23.23;3.85;;;;;;;8.04;100.00;98675.06;4980808;28;20058;-91
2022/10/10 04:16:52;;;;;;;22.50;4.05;;;;;;;8.04;100.00;98670.63;4979860;28;20038;-86
2022/10/10 04:19:18;;;;;;;18.33;3.72;;;;;;;7.91;100.00;98639.94;4978429;28;20038;-90
2022/10/10 04:21:44;;;;;;;18.17;3.40;;;;;;;8.13;100.00;98682.59;4962290;28;20038;-91
2022/10/10 04:24:10;;;;;;;15.95;4.22;;;;;;;7.98;100.00;98661.75;4962182;28;20029;-88
2022/10/10 04:26:35;;;;;;;23.83;3.72;;;;;;;7.79;100.00;98631.00;4978416;28;20085;-89
2022/10/10 04:29:01;;;;;;;20.50;4.18;;;;;;;8.12;100.00;98680.16;4979586;28;20106;-88
2022/10/10 04:31:27;;;;;;;20.30;4.35;;;;;;;7.94;100.00;98662.31;4962979;28;20033;-89
2022/10/10 04:33:55;;;;;;;28.77;4.18;;;;;;;8.06;100.00;98704.44;4978809;28;20030;-90
2022/10/10 04:36:21;;;;;;;22.40;4.18;;;;;;;8.07;100.00;98699.03;4980032;28;20397;-88
2022/10/10 04:38:47;;;;;;;14.00;3.45;;;;;;;7.98;100.00;98684.44;4963388;28;20042;-89
2022/10/10 04:41:13;;;;;;;23.77;4.35;;;;;;;8.04;100.00;98702.00;4962438;28;20027;-91
2022/10/10 04:43:39;;;;;;;21.73;4.40;;;;;;;8.04;100.00;98699.38;4982442;28;20503;-89
2022/10/10 04:46:05;;;;;;;19.98;4.25;;;;;;;7.80;100.00;98670.00;4964381;28;20039;-88
2022/10/10 04:48:30;;;;;;;19.52;3.75;;;;;;;7.89;100.00;98690.81;4981361;28;20021;-88
2022/10/10 04:50:59;;;;;;;17.75;4.57;;;;;;;7.91;100.00;98688.81;4963890;28;20034;-89
2022/10/10 04:53:26;;;;;;;23.35;4.40;;;;;;;7.94;100.00;98707.53;4959875;28;20029;-87
2022/10/10 04:55:52;;;;;;;25.33;5.00;;;;;;;7.80;100.00;98696.13;4962566;28;20034;-88
2022/10/10 04:58:18;;;;;;;31.58;5.47;;;;;;;7.74;100.00;98702.09;4978596;28;20041;-88
2022/10/10 05:00:44;;;;;;;27.42;4.72;;;;;;;7.55;100.00;98693.03;4963764;28;20031;-89
2022/10/10 05:03:11;;;;;;;17.67;4.78;;;;;;;7.80;100.00;98724.88;4962400;28;20515;-88
2022/10/10 05:05:38;;;;;;;23.13;4.82;;;;;;;7.70;100.00;98698.25;4961742;28;20128;-87
2022/10/10 05:08:04;;;;;;;22.27;4.10;;;;;;;7.56;100.00;98685.03;4962447;28;20041;-87
2022/10/10 05:10:34;;;;;;;32.13;5.25;;;;;;;7.76;100.00;98721.00;4962507;28;20030;-88
2022/10/10 05:13:00;;;;;;;31.27;4.35;;;;;;;7.67;100.00;98706.44;4961615;28;20092;-88
2022/10/10 05:15:26;;;;;;;26.77;4.47;;;;;;;7.72;100.00;98712.72;4978728;28;20117;-88
2022/10/10 05:17:52;;;;;;;23.33;4.40;;;;;;;7.85;100.00;98729.56;4977891;28;20045;-88
2022/10/10 05:20:18;;;;;;;22.15;4.28;;;;;;;7.73;100.00;98716.16;4961549;28;20104;-90
2022/10/10 05:22:44;;;;;;;30.08;5.38;;;;;;;7.58;100.00;98703.13;4962482;28;20030;-88
2022/10/10 05:25:10;;;;;;;24.88;5.65;;;;;;;7.78;100.00;98729.47;4995974;28;20477;-87
2022/10/10 05:27:35;;;;;;;27.13;5.22;;;;;;;7.68;100.00;98734.19;4977883;28;20038;-87
2022/10/10 05:30:01;;;;;;;26.60;4.85;;;;;;;7.64;100.00;98733.75;4960283;28;20404;-87
2022/10/10 05:32:27;;;;;;;26.40;4.65;;;;;;;7.46;100.00;98710.59;4960692;28;20022;-89
2022/10/10 05:34:52;;;;;;;34.75;4.65;;;;;;;7.38;100.00;98706.31;4961194;28;20461;-88
2022/10/10 05:37:18;;;;;;;23.45;4.45;;;;;;;7.61;100.00;98733.28;4961545;28;20031;-88
2022/10/10 05:39:44;;;;;;;17.52;4.85;;;;;;;7.82;100.00;98743.78;4961967;28;20023;-89
2022/10/10 05:42:10;;;;;;;21.45;5.30;;;;;;;7.50;100.00;98734.56;4979695;28;20081;-91
2022/10/10 05:44:35;;;;;;;21.00;4.05;;;;;;;7.58;100.00;98730.03;4961716;28;20540;-90
2022/10/10 05:47:10;;;;;;;35.45;4.68;;;;;;;7.78;100.00;98758.22;4979486;28;20026;-88
2022/10/10 05:50:06;;;;;;;24.65;4.50;;;;;;;7.52;100.00;98715.13;4961490;28;20399;-88
2022/10/10 05:52:40;;;;;;;27.02;4.15;;;;;;;7.47;100.00;98704.41;4967040;28;20038;-88
2022/10/10 05:55:09;;;;;;;16.65;3.97;;;;;;;7.80;100.00;98761.44;4963080;28;20042;-90
2022/10/10 05:57:38;;;;;;;24.80;4.82;;;;;;;7.42;100.00;98704.13;4962585;28;20042;-87
2022/10/10 06:00:05;;;;;;;14.95;4.20;;;;;;;7.86;100.00;98781.63;4962843;28;20031;-89
2022/10/10 06:02:31;;;;;;;23.65;5.63;;;;;;;7.51;100.00;98739.63;4962751;28;20484;-91
2022/10/10 06:04:57;;;;;;;23.40;5.47;;;;;;;7.40;100.00;98737.44;4962485;28;20030;-90
2022/10/10 06:07:24;;;;;;;19.55;3.35;;;;;;;7.38;100.00;98713.31;4962008;28;20038;-90
2022/10/10 06:09:49;;;;;;;32.97;6.10;;;;;;;7.88;100.00;98796.31;4961578;28;20529;-90
2022/10/10 06:12:16;;;;;;;19.30;4.20;;;;;;;7.42;100.00;98736.28;4978999;28;20106;-89
2022/10/10 06:14:42;;;;;;;17.70;4.10;;;;;;;7.54;100.00;98770.59;4961878;28;20066;-90
2022/10/10 06:17:10;;;;;;;23.48;4.07;;;;;;;7.32;100.00;98737.56;4963140;28;20101;-88
2022/10/10 06:19:36;;;;;;;22.48;4.88;;;;;;;7.66;100.00;98801.47;4977380;28;20155;-88
2022/10/10 06:22:02;;;;;;;22.17;4.18;;;;;;;7.56;100.00;98801.72;4963171;28;20054;-88
2022/10/10 06:24:28;;;;;;;23.58;4.68;;;;;;;7.49;100.00;98795.63;4962511;28;20128;-87
2022/10/10 06:26:54;;;;;;;28.23;5.85;;;;;;;7.49;100.00;98811.28;4961401;28;20030;-86
2022/10/10 06:29:19;;;;;;;18.95;3.42;;;;;;;7.52;100.00;98819.59;4975920;28;20036;-89
2022/10/10 06:31:51;;;;;;;20.40;3.65;;;;;;;7.47;100.00;98806.25;4975129;28;20022;-87
2022/10/10 06:34:16;;;;;;;18.05;4.38;;;;;;;7.51;100.00;98815.34;4976087;28;20423;-87
2022/10/10 06:36:43;;;;;;;19.00;3.50;;;;;;;7.15;100.00;98761.22;4975013;28;21003;-87
2022/10/10 06:39:09;;;;;;;13.35;3.10;;;;;;;7.56;100.00;98830.47;4959381;28;20527;-86
2022/10/10 06:41:35;;;;;;;23.58;3.78;;;;;;;7.51;100.00;98838.88;4961571;28;20050;-89
2022/10/10 06:44:00;;;;;;;22.08;3.60;;;;;;;7.48;100.00;98830.56;4978114;28;20076;-87
2022/10/10 06:46:27;;;;;;;21.23;3.33;;;;;;;7.36;100.00;98817.94;4963147;28;20100;-89
2022/10/10 06:48:53;;;;;;;24.10;3.42;;;;;;;7.40;100.00;98832.28;4995674;28;20126;-88
2022/10/10 06:51:19;;;;;;;29.02;3.65;;;;;;;7.59;100.00;98861.47;4963158;28;20065;-88
2022/10/10 06:53:45;;;;;;;26.92;4.18;;;;;;;7.49;100.00;98837.41;4978194;28;20499;-89
2022/10/10 06:56:16;;;;;;;23.70;3.80;;;;;;;7.60;100.00;98851.81;4977810;28;20125;-88
2022/10/10 06:58:43;;;;;;;23.00;3.63;;;;;;;7.64;100.00;98853.91;4961380;28;20066;-87
2022/10/10 07:01:10;;;;;;;28.15;3.53;;;;;;;7.66;100.00;98872.00;4994149;28;20085;-91
2022/10/10 07:03:36;;;;;;;16.73;3.17;;;;;;;7.56;100.00;98852.19;4974064;28;20038;-88
2022/10/10 07:06:02;;;;;;;23.65;3.80;;;;;;;7.58;100.00;98865.88;4960443;28;20029;-87
2022/10/10 07:08:29;;;;;;;18.00;3.50;;;;;;;7.72;100.00;98886.97;4994250;28;20118;-88
2022/10/10 07:10:55;;;;;;;26.00;4.55;;;;;;;7.74;100.00;98882.38;4976742;28;20165;-89
2022/10/10 07:13:21;;;;;;;20.45;3.17;;;;;;;7.64;100.00;98868.75;4960765;28;20088;-87
2022/10/10 07:15:47;;;;;;;18.67;4.03;;;;;;;7.71;100.00;98891.38;4960507;28;20048;-86
2022/10/10 07:18:27;;;;;;;18.15;3.70;;;;;;;7.43;100.00;98854.59;4977742;28;20042;-92
2022/10/10 07:20:57;;;;;;;23.60;5.88;;;;;;;8.01;100.00;98911.47;4958719;28;20043;-89
2022/10/10 07:23:23;;;;;;;18.23;3.95;;;;;;;7.95;100.00;98906.97;4990619;28;20088;-88
2022/10/10 07:25:48;;;;;;;18.98;3.88;;;;;;;8.17;100.00;98917.50;4976372;28;20042;-90
2022/10/10 07:28:14;;;;;;;22.17;3.78;;;;;;;8.21;100.00;98927.44;4960016;28;20045;-89
2022/10/10 07:30:44;;;;;;;23.55;3.58;;;;;;;8.32;100.00;98928.78;4960317;28;20539;-89
2022/10/10 07:33:12;;;;;;;22.95;3.95;;;;;;;8.34;100.00;98924.16;4993920;28;20034;-88
2022/10/10 07:35:38;;;;;;;26.50;4.85;;;;;;;8.64;100.00;98945.06;4992311;28;20038;-88
2022/10/10 07:38:04;;;;;;;23.67;3.22;;;;;;;8.57;100.00;98946.78;4975078;28;20064;-87
2022/10/10 07:40:30;;;;;;;27.10;3.95;;;;;;;8.41;100.00;98922.44;4974246;28;20054;-87
2022/10/10 07:42:56;;;;;;;23.05;4.15;;;;;;;8.60;100.00;98956.88;4991621;28;20045;-86
2022/10/10 07:45:22;;;;;;;19.02;3.50;;;;;;;8.61;100.00;98947.25;4974974;28;20444;-88
2022/10/10 07:47:48;;;;;;;17.02;3.30;;;;;;;8.84;100.00;98962.78;4974238;28;20034;-90
2022/10/10 07:50:13;;;;;;;20.77;3.05;;;;;;;8.89;100.00;98973.53;4976900;28;20026;-85
2022/10/10 07:52:39;;;;;;;22.10;4.68;;;;;;;8.99;100.00;98981.09;4976397;28;20042;-85
2022/10/10 07:55:05;;;;;;;22.48;3.90;;;;;;;8.98;100.00;98964.56;4976611;28;20058;-87
2022/10/10 07:57:33;;;;;;;29.73;3.97;;;;;;;8.98;100.00;98972.41;4993888;28;20034;-89
2022/10/10 08:00:07;;;;;;;27.65;3.58;;;;;;;9.17;100.00;98970.16;4992537;28;20030;-88
2022/10/10 08:02:33;;;;;;;14.32;3.33;;;;;;;9.20;100.00;98977.66;4974956;28;20091;-89
2022/10/10 08:04:59;;;;;;;24.42;3.55;;;;;;;9.35;100.00;98997.75;4992445;28;20457;-88
2022/10/10 08:07:24;;;;;;;30.52;4.10;;;;;;;9.40;100.00;98992.75;4959819;28;20035;-87
2022/10/10 08:09:50;;;;;;;14.93;3.28;;;;;;;9.37;100.00;99006.22;4973556;28;20420;-87
2022/10/10 08:12:16;;;;;;;19.25;3.83;;;;;;;9.43;100.00;99000.22;4993014;28;20031;-88
2022/10/10 08:14:42;;;;;;;25.00;4.35;;;;;;;9.41;100.00;98986.50;4959380;28;20081;-86
2022/10/10 08:17:07;;;;;;;26.10;4.38;;;;;;;9.55;100.00;99017.06;4962512;28;20124;-86
2022/10/10 08:19:33;;;;;;;19.50;3.65;;;;;;;9.57;100.00;99007.22;4975540;28;20050;-87
2022/10/10 08:21:59;;;;;;;18.08;3.22;;;;;;;9.60;100.00;99015.69;4976363;28;20031;-86
2022/10/10 08:24:26;;;;;;;23.40;3.08;;;;;;;9.78;100.00;99028.34;4976883;28;20034;-86
2022/10/10 08:26:51;;;;;;;16.70;2.67;;;;;;;9.78;100.00;99016.03;4973910;28;20030;-87
2022/10/10 08:29:17;;;;;;;21.27;3.53;;;;;;;9.90;100.00;99028.66;4957333;28;20039;-86
2022/10/10 08:31:43;;;;;;;19.85;3.50;;;;;;;9.69;100.00;99017.19;4957956;28;20400;-87
2022/10/10 08:34:08;;;;;;;29.98;4.72;;;;;;;9.75;100.00;99026.13;4974589;28;20119;-88
2022/10/10 08:36:35;;;;;;;18.23;3.30;;;;;;;9.67;100.00;98975.44;4958797;28;20464;-88
2022/10/10 08:39:02;;;;;;;15.23;3.47;;;;;;;10.05;100.00;99066.09;4974443;28;20080;-87
2022/10/10 08:41:39;;;;;;;23.05;4.47;;;;;;;10.13;100.00;99060.69;4974947;28;20065;-85
2022/10/10 08:44:36;;;;;;;20.33;3.75;;;;;;;10.35;100.00;99073.75;4973771;28;20037;-87
2022/10/10 08:47:10;;;;;;;19.85;3.85;;;;;;;10.12;100.00;99066.09;4955285;28;20057;-85
2022/10/10 08:49:48;;;;;;;25.92;3.90;;;;;;;10.15;100.00;99073.63;4972642;28;20401;-85
2022/10/10 08:52:32;;;;;;;21.80;4.05;;;;;;;10.31;100.00;99062.00;4974116;28;20039;-86
2022/10/10 08:55:14;;;;;;;24.80;3.65;;;;;;;10.27;100.00;99084.41;4972871;28;20109;-86
2022/10/10 08:57:50;;;;;;;24.00;3.53;;;;;;;10.18;100.00;99064.53;4955176;28;20047;-88
2022/10/10 09:00:21;;;;;;;22.45;3.45;;;;;;;10.42;100.00;99100.06;4973071;28;20027;-87
2022/10/10 09:02:55;;;;;;;22.17;3.50;;;;;;;10.20;100.00;99107.94;4957212;28;20034;-88
2022/10/10 09:05:50;;;;;;;16.45;3.28;;;;;;;10.12;100.00;99085.28;4956231;28;20035;-87
2022/10/10 09:08:40;;;;;;;15.60;3.47;;;;;;;10.48;100.00;99135.22;4942782;28;20055;-85
2022/10/10 09:11:30;;;;;;;19.48;4.43;;;;;;;10.46;100.00;99121.50;4956290;28;20031;-88
2022/10/10 09:14:06;;;;;;;14.88;3.47;;;;;;;10.24;100.00;99113.63;4972038;28;20039;-85
2022/10/10 09:16:59;;;;;;;21.23;3.83;;;;;;;10.48;100.00;99135.22;4971283;28;20113;-84
2022/10/10 09:19:28;;;;;;;23.15;5.13;;;;;;;10.28;100.00;99143.72;4971330;28;20043;-85
2022/10/10 09:22:00;;;;;;;17.10;4.30;;;;;;;10.38;100.00;99146.03;4972160;28;20061;-85
2022/10/10 09:24:45;;;;;;;22.67;6.22;;;;;;;10.51;100.00;99155.84;4958325;28;20029;-86
2022/10/10 09:27:15;;;;;;;11.40;4.35;;;;;;;10.38;100.00;99136.31;4956747;28;20027;-85
2022/10/10 09:29:48;;;;;;;17.92;4.68;;;;;;;10.52;100.00;99153.03;4973210;28;20493;-88
2022/10/10 09:32:24;;;;;;;22.27;5.25;;;;;;;10.68;100.00;99157.16;4971273;28;20400;-87
2022/10/10 09:35:11;;;;;;;17.00;4.32;;;;;;;10.70;100.00;99160.41;4972077;28;20473;-88
2022/10/10 09:37:40;;;;;;;14.25;4.93;;;;;;;10.67;100.00;99150.28;4970911;28;20501;-88
2022/10/10 09:40:37;;;;;;;17.52;4.50;;;;;;;10.86;100.00;99164.53;4955636;28;20429;-86
2022/10/10 09:43:31;;;;;;;12.68;3.45;;;;;;;10.86;100.00;99166.38;4940055;28;20050;-86
2022/10/10 09:45:57;;;;;;;12.98;3.67;;;;;;;10.76;100.00;99163.25;4970130;28;20175;-87
2022/10/10 09:48:35;;;;;;;17.73;4.40;;;;;;;10.97;100.00;99170.25;4973393;28;20047;-88
2022/10/10 09:51:04;;;;;;;22.08;4.43;;;;;;;10.90;100.00;99200.91;4955128;28;20496;-87
2022/10/10 09:53:30;;;;;;;18.35;5.28;;;;;;;11.08;100.00;99176.78;4970844;28;20121;-87
2022/10/10 09:55:59;;;;;;;22.50;3.88;;;;;;;11.20;100.00;99192.81;4971594;28;20114;-86
2022/10/10 09:58:33;;;;;;;15.75;3.83;;;;;;;11.14;100.00;99204.91;4972922;28;20465;-87
2022/10/10 10:01:11;;;;;;;15.18;4.05;;;;;;;11.27;100.00;99202.34;4955849;28;20026;-86
2022/10/10 10:03:37;;;;;;;16.17;4.07;;;;;;;11.35;100.00;99209.25;4970402;28;20039;-85
2022/10/10 10:06:02;;;;;;;13.30;3.50;;;;;;;11.51;100.00;99192.34;4972420;28;20030;-87
2022/10/10 10:08:33;;;;;;;17.13;3.90;;;;;;;11.64;100.00;99206.53;4971715;28;20055;-86
2022/10/10 10:11:01;;;;;;;12.88;4.20;;;;;;;11.38;100.00;99179.13;4955856;28;20065;-84
2022/10/10 10:13:34;;;;;;;15.63;3.00;;;;;;;11.31;100.00;99157.28;4955928;28;20062;-86
2022/10/10 10:16:01;;;;;;;16.73;3.97;;;;;;;11.55;100.00;99209.31;4972253;28;20026;-86
2022/10/10 10:18:30;;;;;;;16.20;3.38;;;;;;;11.46;100.00;99181.59;4956515;28;20133;-86
2022/10/10 10:21:01;;;;;;;13.68;3.30;;;;;;;11.62;100.00;99214.63;4972109;28;20062;-87
2022/10/10 10:23:33;;;;;;;15.73;3.17;;;;;;;11.86;100.00;99226.44;4971080;28;20027;-88
2022/10/10 10:26:20;;;;;;;13.15;2.90;;;;;;;11.58;100.00;99187.91;4972023;28;20038;-86
2022/10/10 10:28:48;;;;;;;17.95;2.80;;;;;;;11.57;100.00;99196.78;4946545;28;20046;-85
2022/10/10 10:31:23;;;;;;;14.68;3.53;;;;;;;11.79;100.00;99235.31;4956511;28;21733;-83
2022/10/10 10:34:03;;;;;;;13.68;3.28;;;;;;;11.90;100.00;99247.91;4972470;28;20085;-85
2022/10/10 10:36:40;;;;;;;14.00;3.55;;;;;;;11.68;100.00;99213.03;4972018;28;20445;-85
2022/10/10 10:39:37;;;;;;;11.20;2.85;;;;;;;12.07;100.00;99253.63;4954795;28;20035;-87
2022/10/10 10:42:27;;;;;;;12.95;2.78;;;;;;;12.13;100.00;99239.66;4954172;28;20118;-86
2022/10/10 10:45:15;;;;;;;12.80;2.58;;;;;;;12.64;100.00;99257.72;4971544;28;20034;-85
2022/10/10 10:47:59;;;;;;;15.23;2.80;;;;;;;12.71;100.00;99267.25;4971804;28;20477;-84
2022/10/10 10:50:29;;;;;;;;;;;;;;;13.08;100.00;99276.56;4973600;28;20027;-85
2022/10/10 10:53:16;;;;;;;11.07;3.30;;;;;;;13.17;100.00;99266.63;4956436;28;19964;-85
2022/10/10 10:56:13;;;;;;;15.45;3.40;;;;;;;13.38;100.00;99257.66;4956571;28;20046;-85
2022/10/10 10:58:39;;;;;;;12.73;2.80;;;;;;;13.56;100.00;99278.94;4955970;28;20031;-86
2022/10/10 11:01:14;;;;;;;10.75;3.28;;;;;;;13.53;100.00;99281.16;4972669;28;20023;-85
2022/10/10 11:03:48;;;;;;;10.85;3.13;;;;;;;13.11;100.00;99294.59;4970482;28;20038;-85
2022/10/10 11:06:24;;;;;;;14.95;3.05;;;;;;;12.79;100.00;99315.50;4956412;28;20126;-85
2022/10/10 11:08:56;;;;;;;7.28;2.25;;;;;;;12.21;100.00;99295.78;4971878;28;20042;-85
2022/10/10 11:11:58;;;;;;;9.70;2.83;;;;;;;12.23;100.00;99285.84;4972043;28;20038;-85
2022/10/10 11:14:41;;;;;;;11.98;2.70;;;;;;;12.05;100.00;99302.19;4956031;28;20148;-84
2022/10/10 11:17:34;;;;;;;12.27;2.40;;;;;;;12.06;100.00;99294.09;4971572;28;20428;-86
2022/10/10 11:20:23;;;;;;;16.08;2.65;;;;;;;12.14;100.00;99301.00;4971324;28;20138;-84
2022/10/10 11:23:03;;;;;;;13.68;2.22;;;;;;;12.26;100.00;99298.59;4953552;28;20057;-83
2022/10/10 11:25:35;;;;;;;8.82;2.90;;;;;;;12.25;100.00;99324.09;4970323;28;20037;-84
2022/10/10 11:28:14;;;;;;;16.48;2.85;;;;;;;12.07;100.00;99313.31;4969873;28;20031;-85
2022/10/10 11:30:46;;;;;;;8.32;2.97;;;;;;;12.33;100.00;99331.00;4968662;28;20385;-85
2022/10/10 11:33:17;;;;;;;6.78;1.92;;;;;;;12.53;100.00;99349.50;4970958;28;20027;-86
2022/10/10 11:36:16;;;;;;;8.25;2.53;;;;;;;12.64;100.00;99358.63;4974445;28;20038;-87
2022/10/10 11:39:19;;;;;;;12.38;2.47;;;;;;;12.91;100.00;99350.75;4957927;28;20046;-87
2022/10/10 11:41:51;;;;;;;13.23;3.88;;;;;;;12.98;100.00;99354.22;4970380;28;20026;-88